Apj Shirin — 3EVS6 — position and weather

sailwx.info

Track history (hours):
 
Tides and Currents Weather Stations Pressure Air Temp Water Temp Dewpoint Dewpoint Depression Visibility Wind Speed Wind Dir Waves Ship Positions

Apj Shirin

Last reported at 2018-May-29 21:53 UTC. Time now 2018-Jun-23 02:48 UTC.
Position N 34°25' E 134°12'.
Warning: this ship's position is 24 days out of date.

Length 190 m; draft 10.2 m.

Type: Cargo ship. MMSI: 373223000.

Date/timePositionNaut miles runAvg speedWind from/ knotsBaromVisibWave heightAir tempDewpointWater temp
2018-May-29 21:53N 34°25' E 134°12'1610.8
2018-May-29 20:23N 34°28' E 134°31'811.2
2018-May-29 19:39N 34°31' E 134°40'311.3
2018-May-29 19:23N 34°32' E 134°44'411.7
2018-May-29 19:01N 34°34' E 134°49'611.6
2018-May-29 18:30N 34°36' E 134°55'5 9.9
2018-May-29 17:59N 34°37' E 135°01'4 9.1
2018-May-29 17:31N 34°35' E 135°06'5 9.6
2018-May-29 17:00N 34°34' E 135°12'2 4.0
2018-May-29 16:29N 34°33' E 135°14'0 0.2
2018-May-29 15:58N 34°33' E 135°14'0 0.0
2018-May-29 15:26N 34°33' E 135°14'0 0.0
2018-May-29 14:55N 34°33' E 135°14'0 0.1
2018-May-29 14:26N 34°33' E 135°14'0 0.0
2018-May-29 13:59N 34°33' E 135°14'0 0.0
2018-May-29 13:28N 34°33' E 135°14'0 0.0
2018-May-29 12:58N 34°33' E 135°14'0 0.0
2018-May-29 12:28N 34°33' E 135°14'0 0.0
2018-May-29 11:58N 34°33' E 135°14'0 0.0
2018-May-29 11:25N 34°33' E 135°14'0 0.0
2018-May-29 10:58N 34°33' E 135°14'0 0.1
2018-May-29 10:26N 34°33' E 135°14'0 0.2
2018-May-29 09:55N 34°33' E 135°14'0 0.2
2018-May-29 09:30N 34°33' E 135°14'4 7.1
2018-May-29 09:00N 34°35' E 135°18'611.7
2018-May-29 08:31N 34°38' E 135°24'2 3.2
2018-May-29 08:01N 34°39' E 135°25'0 0.0
2018-May-29 07:04N 34°39' E 135°25'0 0.0
2018-May-29 06:58N 34°39' E 135°25'0 0.0
2018-May-29 06:28N 34°39' E 135°25'0 0.0
2018-May-29 05:58N 34°39' E 135°25'0 0.0
2018-May-29 05:28N 34°39' E 135°25'0 0.0
2018-May-29 04:58N 34°39' E 135°25'0 0.0
2018-May-29 04:28N 34°39' E 135°25'0 0.0
2018-May-29 03:58N 34°39' E 135°25'0 0.0
2018-May-29 03:28N 34°39' E 135°25'0 0.0
2018-May-29 02:40N 34°39' E 135°25'0 0.0
2018-May-29 02:28N 34°39' E 135°25'0 0.0
2018-May-29 01:52N 34°39' E 135°25'0 0.0
2018-May-29 01:28N 34°39' E 135°25'0 0.0
2018-May-29 00:58N 34°39' E 135°25'0 0.0
2018-May-29 00:16N 34°39' E 135°25'0 0.0
2018-May-28 23:58N 34°39' E 135°25'0 0.0
2018-May-28 23:28N 34°39' E 135°25'0 0.0
2018-May-28 22:58N 34°39' E 135°25'0 0.0
2018-May-28 22:16N 34°39' E 135°25'0 0.0
2018-May-28 21:58N 34°39' E 135°25'0 0.0
2018-May-28 21:22N 34°39' E 135°25'0 0.0
2018-May-28 20:58N 34°39' E 135°25'0 0.0
2018-May-28 20:28N 34°39' E 135°25'0 0.0
2018-May-28 19:58N 34°39' E 135°25'0 0.0
2018-May-28 19:28N 34°39' E 135°25'0 0.0
2018-May-28 18:58N 34°39' E 135°25'0 0.0
2018-May-28 18:28N 34°39' E 135°25'0 0.0
2018-May-28 17:58N 34°39' E 135°25'0 0.0
2018-May-28 17:28N 34°39' E 135°25'0 0.0
2018-May-28 16:58N 34°39' E 135°25'0 0.0
2018-May-28 16:28N 34°39' E 135°25'0 0.0
2018-May-28 15:58N 34°39' E 135°25'0 0.0
2018-May-28 15:28N 34°39' E 135°25'0 0.0
2018-May-28 14:58N 34°39' E 135°25'0 0.0
2018-May-28 14:04N 34°39' E 135°25'0 0.1
2018-May-28 13:58N 34°39' E 135°25'0 0.0
2018-May-28 13:28N 34°39' E 135°25'0 0.0
2018-May-28 12:22N 34°39' E 135°25'0 0.0
2018-May-28 11:58N 34°39' E 135°25'0 0.0
2018-May-28 11:22N 34°39' E 135°25'  
Track history (hours):
 
Tides and Currents Weather Stations Pressure Air Temp Water Temp Dewpoint Dewpoint Depression Visibility Wind Speed Wind Dir Waves Ship Positions

Apj Shirin

Last reported at 2018-May-29 21:53 UTC. Time now 2018-Jun-23 02:48 UTC.
Position N 34°25' E 134°12'.
Warning: this ship's position is 24 days out of date.

Length 190 m; draft 10.2 m.

Type: Cargo ship. MMSI: 373223000.

Date/timePositionNaut miles runAvg speedWind from/ knotsBaromVisibWave heightAir tempDewpointWater temp
2018-May-29 21:53N 34°25' E 134°12'1610.8
2018-May-29 20:23N 34°28' E 134°31'811.2
2018-May-29 19:39N 34°31' E 134°40'311.3
2018-May-29 19:23N 34°32' E 134°44'411.7
2018-May-29 19:01N 34°34' E 134°49'611.6
2018-May-29 18:30N 34°36' E 134°55'5 9.9
2018-May-29 17:59N 34°37' E 135°01'4 9.1
2018-May-29 17:31N 34°35' E 135°06'5 9.6
2018-May-29 17:00N 34°34' E 135°12'2 4.0
2018-May-29 16:29N 34°33' E 135°14'0 0.2
2018-May-29 15:58N 34°33' E 135°14'0 0.0
2018-May-29 15:26N 34°33' E 135°14'0 0.0
2018-May-29 14:55N 34°33' E 135°14'0 0.1
2018-May-29 14:26N 34°33' E 135°14'0 0.0
2018-May-29 13:59N 34°33' E 135°14'0 0.0
2018-May-29 13:28N 34°33' E 135°14'0 0.0
2018-May-29 12:58N 34°33' E 135°14'0 0.0
2018-May-29 12:28N 34°33' E 135°14'0 0.0
2018-May-29 11:58N 34°33' E 135°14'0 0.0
2018-May-29 11:25N 34°33' E 135°14'0 0.0
2018-May-29 10:58N 34°33' E 135°14'0 0.1
2018-May-29 10:26N 34°33' E 135°14'0 0.2
2018-May-29 09:55N 34°33' E 135°14'0 0.2
2018-May-29 09:30N 34°33' E 135°14'4 7.1
2018-May-29 09:00N 34°35' E 135°18'611.7
2018-May-29 08:31N 34°38' E 135°24'2 3.2
2018-May-29 08:01N 34°39' E 135°25'0 0.0
2018-May-29 07:04N 34°39' E 135°25'0 0.0
2018-May-29 06:58N 34°39' E 135°25'0 0.0
2018-May-29 06:28N 34°39' E 135°25'0 0.0
2018-May-29 05:58N 34°39' E 135°25'0 0.0
2018-May-29 05:28N 34°39' E 135°25'0 0.0
2018-May-29 04:58N 34°39' E 135°25'0 0.0
2018-May-29 04:28N 34°39' E 135°25'0 0.0
2018-May-29 03:58N 34°39' E 135°25'0 0.0
2018-May-29 03:28N 34°39' E 135°25'0 0.0
2018-May-29 02:40N 34°39' E 135°25'0 0.0
2018-May-29 02:28N 34°39' E 135°25'0 0.0
2018-May-29 01:52N 34°39' E 135°25'0 0.0
2018-May-29 01:28N 34°39' E 135°25'0 0.0
2018-May-29 00:58N 34°39' E 135°25'0 0.0
2018-May-29 00:16N 34°39' E 135°25'0 0.0
2018-May-28 23:58N 34°39' E 135°25'0 0.0
2018-May-28 23:28N 34°39' E 135°25'0 0.0
2018-May-28 22:58N 34°39' E 135°25'0 0.0
2018-May-28 22:16N 34°39' E 135°25'0 0.0
2018-May-28 21:58N 34°39' E 135°25'0 0.0
2018-May-28 21:22N 34°39' E 135°25'0 0.0
2018-May-28 20:58N 34°39' E 135°25'0 0.0
2018-May-28 20:28N 34°39' E 135°25'0 0.0
2018-May-28 19:58N 34°39' E 135°25'0 0.0
2018-May-28 19:28N 34°39' E 135°25'0 0.0
2018-May-28 18:58N 34°39' E 135°25'0 0.0
2018-May-28 18:28N 34°39' E 135°25'0 0.0
2018-May-28 17:58N 34°39' E 135°25'0 0.0
2018-May-28 17:28N 34°39' E 135°25'0 0.0
2018-May-28 16:58N 34°39' E 135°25'0 0.0
2018-May-28 16:28N 34°39' E 135°25'0 0.0
2018-May-28 15:58N 34°39' E 135°25'0 0.0
2018-May-28 15:28N 34°39' E 135°25'0 0.0
2018-May-28 14:58N 34°39' E 135°25'0 0.0
2018-May-28 14:04N 34°39' E 135°25'0 0.1
2018-May-28 13:58N 34°39' E 135°25'0 0.0
2018-May-28 13:28N 34°39' E 135°25'0 0.0
2018-May-28 12:22N 34°39' E 135°25'0 0.0
2018-May-28 11:58N 34°39' E 135°25'0 0.0
2018-May-28 11:22N 34°39' E 135°25'  

Dump ship's entire track history